createdAt,value
2018-11-11T00:00:25.055Z,100515.75
2018-11-11T00:02:54.334Z,100514.95
2018-11-11T00:05:22.673Z,100513.22
2018-11-11T00:07:51.095Z,100522.52
2018-11-11T00:10:19.444Z,100525.34
2018-11-11T00:12:47.792Z,100520.62
2018-11-11T00:15:17.158Z,100524.13
2018-11-11T00:17:46.541Z,100527.19
2018-11-11T00:20:14.928Z,100535.80
2018-11-11T00:22:43.483Z,100526.08
2018-11-11T00:25:11.885Z,100531.55
2018-11-11T00:27:40.768Z,100523.95
2018-11-11T00:30:13.350Z,100535.00
2018-11-11T00:32:41.772Z,100530.34
2018-11-11T00:35:10.517Z,100534.89
2018-11-11T00:37:39.317Z,100534.55
2018-11-11T00:40:09.074Z,100538.52
2018-11-11T00:42:37.432Z,100540.35
2018-11-11T00:45:06.539Z,100537.56
2018-11-11T00:47:34.920Z,100533.43
2018-11-11T00:50:03.274Z,100546.42
2018-11-11T00:52:31.650Z,100544.23
2018-11-11T00:55:00.054Z,100550.73
2018-11-11T00:57:28.404Z,100554.83
2018-11-11T00:59:56.751Z,100548.86
2018-11-11T01:02:25.155Z,100552.02
2018-11-11T01:04:53.527Z,100539.94
2018-11-11T01:07:21.848Z,100545.23
2018-11-11T01:09:50.210Z,100535.59
2018-11-11T01:12:18.629Z,100532.37
2018-11-11T01:14:47.006Z,100537.15
2018-11-11T01:17:16.108Z,100532.61
2018-11-11T01:19:44.443Z,100543.63
2018-11-11T01:22:12.790Z,100540.70
2018-11-11T01:24:41.176Z,100545.24
2018-11-11T01:27:09.533Z,100548.69
2018-11-11T01:29:37.897Z,100537.71
2018-11-11T01:32:06.214Z,100534.78
2018-11-11T01:34:34.576Z,100535.81
2018-11-11T01:37:02.902Z,100543.63
2018-11-11T01:39:31.244Z,100534.84
2018-11-11T01:42:06.461Z,100536.33
2018-11-11T01:44:35.046Z,100537.31
2018-11-11T01:47:03.368Z,100532.94
2018-11-11T01:49:31.703Z,100533.23
2018-11-11T01:52:00.094Z,100542.70
2018-11-11T01:54:28.436Z,100537.13
2018-11-11T01:56:56.767Z,100533.97
2018-11-11T01:59:25.332Z,100531.91
2018-11-11T02:01:53.646Z,100530.07
2018-11-11T02:04:21.990Z,100517.89
2018-11-11T02:06:50.318Z,100512.22
2018-11-11T02:09:18.672Z,100511.34
2018-11-11T02:11:47.000Z,100524.63
2018-11-11T02:14:15.338Z,100532.26
2018-11-11T02:16:43.720Z,100525.02
2018-11-11T02:19:12.053Z,100528.92
2018-11-11T02:21:40.537Z,100528.46
2018-11-11T02:24:08.847Z,100531.91
2018-11-11T02:26:37.156Z,100534.16
2018-11-11T02:29:05.789Z,100524.05
2018-11-11T02:31:34.131Z,100529.09
2018-11-11T02:34:02.496Z,100525.48
2018-11-11T02:36:30.834Z,100531.52
2018-11-11T02:38:59.202Z,100529.91
2018-11-11T02:41:27.570Z,100527.95
2018-11-11T02:43:57.192Z,100535.99
2018-11-11T02:46:25.540Z,100543.05
2018-11-11T02:48:54.004Z,100538.70
2018-11-11T02:51:22.432Z,100547.14
2018-11-11T02:53:50.760Z,100540.99
2018-11-11T02:56:19.134Z,100531.11
2018-11-11T02:58:47.567Z,100536.62
2018-11-11T03:01:15.960Z,100530.81
2018-11-11T03:03:44.307Z,100537.71
2018-11-11T03:06:12.686Z,100533.75
2018-11-11T03:08:41.042Z,100531.84
2018-11-11T03:11:09.369Z,100522.54
2018-11-11T03:13:37.691Z,100524.80
2018-11-11T03:16:06.108Z,100531.47
2018-11-11T03:18:34.429Z,100524.97
2018-11-11T03:21:02.829Z,100523.13
2018-11-11T03:23:31.174Z,100528.02
2018-11-11T03:26:00.198Z,100534.48
2018-11-11T03:28:28.543Z,100524.73
2018-11-11T03:30:56.944Z,100522.72
2018-11-11T03:33:25.298Z,100522.31
2018-11-11T03:35:53.637Z,100527.31
2018-11-11T03:38:21.979Z,100524.28
2018-11-11T03:40:50.316Z,100536.75
2018-11-11T03:43:18.688Z,100535.00
2018-11-11T03:45:47.015Z,100538.45
2018-11-11T03:48:15.360Z,100530.59
2018-11-11T03:50:43.781Z,100541.45
2018-11-11T03:53:12.140Z,100537.49
2018-11-11T03:55:40.479Z,100541.33
2018-11-11T03:58:08.857Z,100542.55
2018-11-11T04:00:37.155Z,100538.08
2018-11-11T04:03:05.673Z,100536.91
2018-11-11T04:05:34.051Z,100539.26
2018-11-11T04:08:02.340Z,100547.02
2018-11-11T04:10:30.697Z,100548.92
2018-11-11T04:12:59.057Z,100548.69
2018-11-11T04:15:27.429Z,100539.50
2018-11-11T04:17:55.809Z,100540.25
2018-11-11T04:20:24.210Z,100543.75
2018-11-11T04:22:52.564Z,100537.66
2018-11-11T04:25:20.885Z,100536.27
2018-11-11T04:27:49.294Z,100536.69
2018-11-11T04:30:17.606Z,100538.68
2018-11-11T04:32:45.983Z,100532.67
2018-11-11T04:35:14.547Z,100525.55
2018-11-11T04:37:42.897Z,100534.80
2018-11-11T04:40:12.228Z,100532.02
2018-11-11T04:42:40.634Z,100531.12
2018-11-11T04:45:10.631Z,100527.32
2018-11-11T04:47:38.936Z,100541.17
2018-11-11T04:50:08.753Z,100539.05
2018-11-11T04:52:37.108Z,100535.02
2018-11-11T04:55:05.887Z,100540.37
2018-11-11T04:57:34.281Z,100535.69
2018-11-11T05:00:02.652Z,100539.50
2018-11-11T05:02:31.026Z,100540.08
2018-11-11T05:04:59.404Z,100543.23
2018-11-11T05:07:27.783Z,100539.50
2018-11-11T05:09:56.099Z,100538.47
2018-11-11T05:12:24.551Z,100536.41
2018-11-11T05:14:52.866Z,100534.80
2018-11-11T05:17:21.181Z,100528.94
2018-11-11T05:19:49.561Z,100541.55
2018-11-11T05:22:17.907Z,100549.91
2018-11-11T05:24:46.205Z,100544.19
2018-11-11T05:27:14.555Z,100556.51
2018-11-11T05:29:42.869Z,100548.16
2018-11-11T05:32:11.208Z,100552.23
2018-11-11T05:34:39.589Z,100552.64
2018-11-11T05:37:07.888Z,100549.77
2018-11-11T05:39:36.211Z,100552.70
2018-11-11T05:42:04.570Z,100548.73
2018-11-11T05:44:32.909Z,100552.88
2018-11-11T05:47:01.223Z,100561.09
2018-11-11T05:49:29.694Z,100559.94
2018-11-11T05:51:58.055Z,100560.05
2018-11-11T05:54:26.393Z,100561.66
2018-11-11T05:56:54.775Z,100553.05
2018-11-11T05:59:23.143Z,100557.70
2018-11-11T06:01:51.593Z,100557.63
2018-11-11T06:04:19.960Z,100560.62
2018-11-11T06:06:48.249Z,100557.75
2018-11-11T06:09:16.568Z,100567.06
2018-11-11T06:11:44.953Z,100568.16
2018-11-11T06:14:13.287Z,100563.10
2018-11-11T06:16:41.676Z,100570.28
2018-11-11T06:19:10.020Z,100579.08
2018-11-11T06:21:38.403Z,100581.78
2018-11-11T06:24:06.712Z,100579.14
2018-11-11T06:26:35.049Z,100582.68
2018-11-11T06:29:03.453Z,100584.00
2018-11-11T06:31:31.831Z,100578.63
2018-11-11T06:34:00.233Z,100580.23
2018-11-11T06:36:28.565Z,100570.50
2018-11-11T06:38:56.874Z,100574.66
2018-11-11T06:41:32.009Z,100579.95
2018-11-11T06:44:00.353Z,100581.44
2018-11-11T06:46:29.596Z,100594.94
2018-11-11T06:48:57.938Z,100576.31
2018-11-11T06:51:26.314Z,100580.80
2018-11-11T06:53:54.718Z,100582.86
2018-11-11T06:56:23.102Z,100578.16
2018-11-11T06:58:51.413Z,100581.42
2018-11-11T07:01:19.718Z,100575.81
2018-11-11T07:03:52.833Z,100579.78
2018-11-11T07:06:21.568Z,100579.99
2018-11-11T07:08:49.914Z,100580.34
2018-11-11T07:11:18.969Z,100579.08
2018-11-11T07:13:47.347Z,100575.05
2018-11-11T07:16:15.721Z,100583.11
2018-11-11T07:18:45.221Z,100587.59
2018-11-11T07:21:13.569Z,100597.52
2018-11-11T07:23:42.060Z,100590.52
2018-11-11T07:26:10.382Z,100592.75
2018-11-11T07:28:38.788Z,100600.68
2018-11-11T07:31:07.534Z,100600.10
2018-11-11T07:33:35.846Z,100602.00
2018-11-11T07:36:04.285Z,100600.58
2018-11-11T07:38:32.585Z,100605.66
2018-11-11T07:41:01.823Z,100608.61
2018-11-11T07:43:30.194Z,100605.10
2018-11-11T07:45:58.554Z,100602.63
2018-11-11T07:48:26.904Z,100601.15
2018-11-11T07:50:55.234Z,100610.09
2018-11-11T07:53:23.617Z,100615.68
2018-11-11T07:55:51.996Z,100614.88
2018-11-11T07:58:20.611Z,100607.33
2018-11-11T08:00:48.988Z,100611.66
2018-11-11T08:03:17.261Z,100611.75
2018-11-11T08:05:46.862Z,100619.28
2018-11-11T08:08:15.212Z,100618.03
2018-11-11T08:11:54.530Z,100621.58
2018-11-11T08:14:22.907Z,100622.73
2018-11-11T08:16:51.399Z,100618.19
2018-11-11T08:19:19.711Z,100625.95
2018-11-11T08:21:48.056Z,100635.66
2018-11-11T08:24:16.522Z,100636.07
2018-11-11T08:26:44.949Z,100635.50
2018-11-11T08:29:13.367Z,100635.95
2018-11-11T08:31:42.072Z,100634.59
2018-11-11T08:34:10.572Z,100633.53
2018-11-11T08:36:38.998Z,100633.88
2018-11-11T08:39:09.298Z,100633.08
2018-11-11T08:41:38.887Z,100640.78
2018-11-11T08:44:07.720Z,100642.84
2018-11-11T08:46:36.240Z,100642.23
2018-11-11T08:49:04.634Z,100637.33
2018-11-11T08:51:33.058Z,100641.23
2018-11-11T08:54:01.409Z,100649.52
2018-11-11T08:56:30.036Z,100650.61
2018-11-11T08:58:58.538Z,100651.83
2018-11-11T09:01:26.914Z,100654.13
2018-11-11T09:03:55.255Z,100653.03
2018-11-11T09:06:23.726Z,100659.18
2018-11-11T09:08:52.106Z,100651.80
2018-11-11T09:11:20.980Z,100646.06
2018-11-11T09:13:49.853Z,100647.97
2018-11-11T09:16:18.310Z,100661.89
2018-11-11T09:18:46.804Z,100659.47
2018-11-11T09:21:15.200Z,100656.60
2018-11-11T09:23:43.641Z,100663.82
2018-11-11T09:26:12.021Z,100659.69
2018-11-11T09:28:40.344Z,100652.12
2018-11-11T09:31:08.748Z,100661.30
2018-11-11T09:33:37.358Z,100665.56
2018-11-11T09:36:06.547Z,100659.58
2018-11-11T09:38:35.018Z,100666.25
2018-11-11T09:41:03.511Z,100661.89
2018-11-11T09:43:31.925Z,100656.93
2018-11-11T09:46:00.292Z,100662.97
2018-11-11T09:48:28.794Z,100658.66
2018-11-11T09:50:57.463Z,100666.99
2018-11-11T09:53:26.064Z,100663.31
2018-11-11T09:55:54.503Z,100664.64
2018-11-11T09:58:22.871Z,100656.12
2018-11-11T10:00:51.339Z,100663.38
2018-11-11T10:05:28.600Z,100668.60
2018-11-11T10:08:12.561Z,100667.45
2018-11-11T10:11:16.970Z,100668.38
2018-11-11T10:13:50.405Z,100666.99
2018-11-11T10:16:23.978Z,100664.20
2018-11-11T10:21:05.964Z,100670.52
2018-11-11T10:23:53.516Z,100667.36
2018-11-11T10:26:27.116Z,100671.59
2018-11-11T10:29:03.652Z,100682.47
2018-11-11T10:31:39.771Z,100685.56
2018-11-11T10:34:15.995Z,100689.14
2018-11-11T10:36:57.943Z,100679.14
2018-11-11T10:39:30.487Z,100679.59
2018-11-11T10:42:04.596Z,100685.52
2018-11-11T10:45:41.899Z,100686.78
2018-11-11T10:48:11.605Z,100685.06
2018-11-11T10:50:43.150Z,100683.39
2018-11-11T10:53:11.582Z,100686.61
2018-11-11T10:55:39.944Z,100683.45
2018-11-11T10:58:08.292Z,100691.54
2018-11-11T11:00:41.916Z,100687.05
2018-11-11T11:03:15.633Z,100684.13
2018-11-11T11:05:44.074Z,100683.38
2018-11-11T11:08:12.462Z,100687.17
2018-11-11T11:10:40.854Z,100690.23
2018-11-11T11:13:10.153Z,100692.50
2018-11-11T11:15:38.484Z,100694.11
2018-11-11T11:18:06.852Z,100689.91
2018-11-11T11:20:35.249Z,100686.41
2018-11-11T11:23:04.536Z,100686.78
2018-11-11T11:25:32.957Z,100682.81
2018-11-11T11:28:01.405Z,100680.88
2018-11-11T11:30:29.860Z,100674.32
2018-11-11T11:32:58.206Z,100676.79
2018-11-11T11:35:26.699Z,100681.86
2018-11-11T11:37:55.095Z,100686.34
2018-11-11T11:40:23.551Z,100672.08
2018-11-11T11:42:51.998Z,100673.77
2018-11-11T11:45:20.473Z,100666.32
2018-11-11T11:47:49.149Z,100677.41
2018-11-11T11:50:17.696Z,100670.88
2018-11-11T11:52:46.222Z,100673.98
2018-11-11T11:55:15.228Z,100667.55
2018-11-11T11:57:43.715Z,100663.75
2018-11-11T12:00:13.751Z,100665.19
2018-11-11T12:02:42.259Z,100666.80
2018-11-11T12:05:10.999Z,100665.86
2018-11-11T12:07:39.705Z,100661.20
2018-11-11T12:10:09.590Z,100658.02
2018-11-11T12:12:38.160Z,100666.13
2018-11-11T12:15:07.667Z,100669.36
2018-11-11T12:17:36.193Z,100658.76
2018-11-11T12:20:05.159Z,100670.50
2018-11-11T12:22:33.969Z,100678.34
2018-11-11T12:25:02.371Z,100666.14
2018-11-11T12:27:30.814Z,100678.23
2018-11-11T12:29:59.407Z,100674.87
2018-11-11T12:32:27.811Z,100679.85
2018-11-11T12:34:56.299Z,100682.95
2018-11-11T12:37:24.725Z,100679.09
2018-11-11T12:39:53.401Z,100693.68
2018-11-11T12:42:21.726Z,100706.42
2018-11-11T12:44:50.187Z,100696.48
2018-11-11T12:47:19.274Z,100703.82
2018-11-11T12:49:47.765Z,100709.88
2018-11-11T12:52:16.304Z,100704.91
2018-11-11T12:54:44.834Z,100706.66
2018-11-11T12:57:13.233Z,100698.39
2018-11-11T12:59:41.597Z,100702.22
2018-11-11T13:02:10.068Z,100718.55
2018-11-11T13:04:38.525Z,100718.50
2018-11-11T13:07:07.045Z,100711.80
2018-11-11T13:09:35.423Z,100716.98
2018-11-11T13:12:03.918Z,100737.16
2018-11-11T13:14:32.333Z,100745.11
2018-11-11T13:17:00.760Z,100733.03
2018-11-11T13:19:29.209Z,100721.94
2018-11-11T13:21:57.811Z,100721.66
2018-11-11T13:24:26.160Z,100708.98
2018-11-11T13:26:54.578Z,100710.45
2018-11-11T13:29:22.920Z,100724.42
2018-11-11T13:31:51.359Z,100727.36
2018-11-11T13:34:19.780Z,100735.32
2018-11-11T13:36:48.545Z,100740.83
2018-11-11T13:39:17.461Z,100730.09
2018-11-11T13:41:46.131Z,100736.49
2018-11-11T13:44:14.707Z,100731.54
2018-11-11T13:46:43.122Z,100734.47
2018-11-11T13:49:11.676Z,100731.14
2018-11-11T13:51:40.129Z,100726.47
2018-11-11T13:54:08.519Z,100746.41
2018-11-11T13:56:37.097Z,100741.42
2018-11-11T13:59:05.737Z,100742.79
2018-11-11T14:01:35.685Z,100756.86
2018-11-11T14:04:04.174Z,100752.55
2018-11-11T14:06:32.570Z,100750.06
2018-11-11T14:09:01.152Z,100749.61
2018-11-11T14:11:29.582Z,100757.97
2018-11-11T14:13:57.898Z,100763.20
2018-11-11T14:16:26.392Z,100749.49
2018-11-11T14:18:55.208Z,100752.26
2018-11-11T14:21:23.363Z,100759.41
2018-11-11T14:23:52.086Z,100761.48
2018-11-11T14:26:20.872Z,100756.70
2018-11-11T14:28:49.224Z,100765.23
2018-11-11T14:31:17.607Z,100765.09
2018-11-11T14:33:46.203Z,100770.20
2018-11-11T14:36:14.651Z,100771.38
2018-11-11T14:38:43.074Z,100780.95
2018-11-11T14:41:11.841Z,100782.56
2018-11-11T14:43:40.393Z,100780.77
2018-11-11T14:46:08.926Z,100783.42
2018-11-11T14:48:37.453Z,100777.97
2018-11-11T14:51:06.128Z,100776.92
2018-11-11T14:53:34.582Z,100779.23
2018-11-11T14:56:03.377Z,100781.14
2018-11-11T14:58:31.939Z,100786.48
2018-11-11T15:01:00.408Z,100774.22
2018-11-11T15:03:28.896Z,100762.34
2018-11-11T15:05:57.285Z,100749.95
2018-11-11T15:08:25.727Z,100768.59
2018-11-11T15:10:54.181Z,100776.53
2018-11-11T15:13:22.568Z,100778.05
2018-11-11T15:15:51.175Z,100779.19
2018-11-11T15:18:19.628Z,100772.89
2018-11-11T15:20:48.652Z,100774.82
2018-11-11T15:23:16.980Z,100791.81
2018-11-11T15:25:52.462Z,100787.36
2018-11-11T15:28:20.981Z,100788.73
2018-11-11T15:30:49.500Z,100778.73
2018-11-11T15:33:17.970Z,100792.60
2018-11-11T15:35:46.642Z,100788.11
2018-11-11T15:38:14.965Z,100793.28
2018-11-11T15:40:43.319Z,100799.56
2018-11-11T15:43:11.730Z,100808.55
2018-11-11T15:45:40.130Z,100794.73
2018-11-11T15:48:08.783Z,100796.75
2018-11-11T15:50:37.659Z,100805.97
2018-11-11T15:53:07.633Z,100806.31
2018-11-11T15:55:37.382Z,100807.29
2018-11-11T15:58:06.302Z,100803.37
2018-11-11T16:00:36.199Z,100811.30
2018-11-11T16:03:04.801Z,100796.92
2018-11-11T16:05:33.176Z,100794.71
2018-11-11T16:08:02.077Z,100793.53
2018-11-11T16:10:31.695Z,100808.44
2018-11-11T16:13:00.192Z,100809.82
2018-11-11T16:15:30.089Z,100808.09
2018-11-11T16:18:01.974Z,100814.31
2018-11-11T16:20:30.986Z,100825.17
2018-11-11T16:23:00.503Z,100838.50
2018-11-11T16:25:29.150Z,100850.86
2018-11-11T16:27:57.747Z,100848.67
2018-11-11T16:30:28.546Z,100843.95
2018-11-11T16:32:57.787Z,100835.88
2018-11-11T16:35:27.089Z,100844.41
2018-11-11T16:37:55.800Z,100840.43
2018-11-11T16:40:26.721Z,100828.69
2018-11-11T16:42:55.433Z,100841.13
2018-11-11T16:45:25.146Z,100844.86
2018-11-11T16:47:53.633Z,100849.58
2018-11-11T16:50:24.766Z,100851.95
2018-11-11T16:52:54.058Z,100852.62
2018-11-11T16:55:23.991Z,100852.00
2018-11-11T16:57:52.607Z,100856.95
2018-11-11T17:00:24.442Z,100858.05
2018-11-11T17:02:53.197Z,100861.95
2018-11-11T17:05:22.996Z,100876.01
2018-11-11T17:07:51.833Z,100890.19
2018-11-11T17:10:21.575Z,100900.07
2018-11-11T17:12:50.996Z,100893.46
2018-11-11T17:15:20.970Z,100899.66
2018-11-11T17:17:49.343Z,100902.02
2018-11-11T17:20:19.030Z,100912.55
2018-11-11T17:22:48.447Z,100920.69
2018-11-11T17:25:17.592Z,100919.23
2018-11-11T17:27:46.532Z,100929.53
2018-11-11T17:30:18.877Z,100927.98
2018-11-11T17:32:48.324Z,100926.30
2018-11-11T17:35:16.667Z,100917.97
2018-11-11T17:37:45.342Z,100921.81
2018-11-11T17:40:15.888Z,100920.42
2018-11-11T17:42:45.394Z,100917.69
2018-11-11T17:45:14.572Z,100908.64
2018-11-11T17:47:43.761Z,100910.33
2018-11-11T17:50:15.128Z,100905.41
2018-11-11T17:52:43.699Z,100911.94
2018-11-11T17:55:13.543Z,100917.39
2018-11-11T17:57:42.902Z,100915.71
2018-11-11T18:00:13.061Z,100922.23
2018-11-11T18:02:41.496Z,100925.85
2018-11-11T18:05:11.457Z,100921.30
2018-11-11T18:07:40.762Z,100915.48
2018-11-11T18:10:15.813Z,100928.42
2018-11-11T18:12:44.525Z,100928.35
2018-11-11T18:15:14.428Z,100927.16
2018-11-11T18:17:43.256Z,100930.55
2018-11-11T18:20:17.985Z,100938.36
2018-11-11T18:22:46.937Z,100929.54
2018-11-11T18:25:15.489Z,100926.16
2018-11-11T18:27:43.988Z,100913.95
2018-11-11T18:30:16.245Z,100920.98
2018-11-11T18:32:45.006Z,100916.44
2018-11-11T18:35:14.689Z,100923.22
2018-11-11T18:37:43.161Z,100916.44
2018-11-11T18:40:13.213Z,100922.41
2018-11-11T18:42:42.805Z,100926.00
2018-11-11T18:45:13.680Z,100930.64
2018-11-11T18:47:42.101Z,100926.73
2018-11-11T18:50:13.246Z,100931.89
2018-11-11T18:52:41.763Z,100940.62
2018-11-11T18:55:10.773Z,100938.06
2018-11-11T18:57:39.674Z,100928.22
2018-11-11T19:00:19.597Z,100940.47
2018-11-11T19:02:49.174Z,100936.88
2018-11-11T19:05:18.405Z,100936.59
2018-11-11T19:07:47.395Z,100932.03
2018-11-11T19:10:17.445Z,100925.85
2018-11-11T19:12:46.833Z,100946.72
2018-11-11T19:15:16.253Z,100945.98
2018-11-11T19:17:45.704Z,100953.27
2018-11-11T19:20:15.344Z,100958.19
2018-11-11T19:22:43.822Z,100966.13
2018-11-11T19:25:14.553Z,100962.37
2018-11-11T19:27:45.216Z,100972.89
2018-11-11T19:30:14.689Z,100976.70
2018-11-11T19:32:43.825Z,100970.98
2018-11-11T19:35:13.297Z,100962.75
2018-11-11T19:37:42.365Z,100965.83
2018-11-11T19:40:14.435Z,100965.83
2018-11-11T19:42:43.272Z,100971.12
2018-11-11T19:45:13.861Z,100982.37
2018-11-11T19:47:43.160Z,100988.02
2018-11-11T19:50:14.339Z,100985.02
2018-11-11T19:52:44.423Z,100984.18
2018-11-11T19:55:13.743Z,100988.77
2018-11-11T19:57:42.800Z,101002.58
2018-11-11T20:00:14.700Z,101002.58
2018-11-11T20:02:44.391Z,101000.81
2018-11-11T20:05:14.098Z,101005.59
2018-11-11T20:07:43.877Z,101001.98
2018-11-11T20:10:13.801Z,101011.59
2018-11-11T20:12:42.595Z,101020.63
2018-11-11T20:15:13.969Z,101028.56
2018-11-11T20:17:42.841Z,101041.27
2018-11-11T20:20:14.512Z,101045.73
2018-11-11T20:22:43.199Z,101042.80
2018-11-11T20:25:13.080Z,101034.57
2018-11-11T20:27:42.944Z,101026.67
2018-11-11T20:30:14.519Z,101011.03
2018-11-11T20:32:43.780Z,100990.09
2018-11-11T20:35:14.565Z,100991.12
2018-11-11T20:37:42.940Z,100997.80
2018-11-11T20:40:13.171Z,101002.13
2018-11-11T20:42:43.014Z,101011.03
2018-11-11T20:45:13.261Z,101013.02
2018-11-11T20:47:42.626Z,101019.73
2018-11-11T20:50:16.914Z,101016.36
2018-11-11T20:52:46.608Z,101028.77
2018-11-11T20:55:15.826Z,101031.53
2018-11-11T20:57:45.085Z,101039.72
2018-11-11T21:00:15.982Z,101042.98
2018-11-11T21:02:45.457Z,101044.31
2018-11-11T21:05:15.217Z,101043.47
2018-11-11T21:07:43.695Z,101049.12
2018-11-11T21:10:14.613Z,101056.25
2018-11-11T21:12:43.102Z,101062.79
2018-11-11T21:15:13.691Z,101051.98
2018-11-11T21:17:42.938Z,101055.73
2018-11-11T21:20:13.274Z,101044.89
2018-11-11T21:22:42.526Z,101044.42
2018-11-11T21:25:11.313Z,101051.88
2018-11-11T21:27:40.594Z,101062.45
2018-11-11T21:30:11.479Z,101073.24
2018-11-11T21:32:39.909Z,101086.52
2018-11-11T21:35:08.603Z,101079.53
2018-11-11T21:37:37.067Z,101085.95
2018-11-11T21:40:08.352Z,101085.92
2018-11-11T21:42:37.139Z,101070.13
2018-11-11T21:45:06.309Z,101053.53
2018-11-11T21:47:34.893Z,101049.42
2018-11-11T21:50:03.371Z,101049.56
2018-11-11T21:52:31.704Z,101046.27
2018-11-11T21:55:00.096Z,101048.32
2018-11-11T21:57:28.501Z,101050.45
2018-11-11T21:59:56.855Z,101047.51
2018-11-11T22:02:25.399Z,101057.80
2018-11-11T22:04:53.728Z,101073.96
2018-11-11T22:07:22.348Z,101075.06
2018-11-11T22:09:50.974Z,101080.13
2018-11-11T22:12:19.441Z,101100.50
2018-11-11T22:14:48.103Z,101095.39
2018-11-11T22:17:16.587Z,101094.62
2018-11-11T22:19:45.034Z,101095.20
2018-11-11T22:22:13.899Z,101095.86
2018-11-11T22:24:42.347Z,101103.63
2018-11-11T22:27:10.732Z,101106.00
2018-11-11T22:29:39.209Z,101092.70
2018-11-11T22:32:08.547Z,101109.08
2018-11-11T22:34:37.004Z,101119.41
2018-11-11T22:37:05.954Z,101107.73
2018-11-11T22:39:34.711Z,101111.41
2018-11-11T22:42:03.124Z,101111.78
2018-11-11T22:44:31.596Z,101112.80
2018-11-11T22:46:59.897Z,101114.94
2018-11-11T22:49:28.213Z,101111.05
2018-11-11T22:51:56.545Z,101123.25
2018-11-11T22:54:24.868Z,101122.27
2018-11-11T22:56:53.256Z,101125.43
2018-11-11T22:59:21.695Z,101139.54
2018-11-11T23:01:50.163Z,101147.98
2018-11-11T23:04:18.639Z,101148.92
2018-11-11T23:06:46.989Z,101148.00
2018-11-11T23:09:15.276Z,101150.43
2018-11-11T23:11:43.649Z,101154.61
2018-11-11T23:14:12.037Z,101160.39
2018-11-11T23:16:40.454Z,101158.48
2018-11-11T23:19:08.872Z,101162.84
2018-11-11T23:21:37.323Z,101156.66
2018-11-11T23:24:06.622Z,101156.48
2018-11-11T23:26:35.036Z,101172.34
2018-11-11T23:29:03.457Z,101169.50
2018-11-11T23:31:31.908Z,101173.16
2018-11-11T23:34:00.557Z,101173.67
2018-11-11T23:36:28.993Z,101181.30
2018-11-11T23:38:57.852Z,101182.11
2018-11-11T23:41:26.652Z,101183.35
2018-11-11T23:43:55.459Z,101184.33
2018-11-11T23:46:24.274Z,101173.25
2018-11-11T23:48:52.915Z,101183.56
2018-11-11T23:51:21.767Z,101182.03
2018-11-11T23:53:50.606Z,101171.16
2018-11-11T23:56:19.264Z,101178.66
2018-11-11T23:58:47.815Z,101184.67
